Wetterdaten: Woche 25.05.15 - 31.05.15 (KW22)
Datum Zeit Temp. A. Feuchte A. Luftdruck Regen Wind Richtung Sonnenschein ET UV Solar Taupunkt Windchill Windben
25.05.2015 00:00 11,3 C 93 % 1016,9 hPa 0,0 l/m 0,0 km/h (0 Bft) N 0,00 h 0,000 mm 0,0 UV-I 0 W/m 10,2 C 11,3 C 0,3 km/h (0 Bft)
25.05.2015 01:00 11,1 C 93 % 1016,4 hPa 0,0 l/m 0,0 km/h (0 Bft) N 0,00 h 0,000 mm 0,0 UV-I 0 W/m 10,0 C 11,1 C 0,2 km/h (0 Bft)
25.05.2015 02:00 11,0 C 93 % 1015,9 hPa 0,0 l/m 0,0 km/h (0 Bft) N 0,00 h 0,000 mm 0,0 UV-I 0 W/m 9,9 C 11,0 C 0,2 km/h (0 Bft)
25.05.2015 03:00 10,9 C 93 % 1015,6 hPa 0,0 l/m 0,0 km/h (0 Bft) N 0,00 h 0,000 mm 0,0 UV-I 0 W/m 9,8 C 10,9 C 0,0 km/h (0 Bft)
25.05.2015 04:00 10,8 C 93 % 1015,4 hPa 0,0 l/m 0,0 km/h (0 Bft) N 0,00 h 0,000 mm 0,0 UV-I 0 W/m 9,7 C 10,8 C 0,0 km/h (0 Bft)
25.05.2015 05:00 10,8 C 93 % 1015,3 hPa 0,0 l/m 0,0 km/h (0 Bft) N 0,00 h 0,000 mm 0,0 UV-I 6 W/m 9,7 C 10,8 C 0,0 km/h (0 Bft)
25.05.2015 06:00 10,4 C 94 % 1015,1 hPa 0,0 l/m 0,0 km/h (0 Bft) N 0,00 h 0,000 mm 0,0 UV-I 20 W/m 9,5 C 10,4 C 0,0 km/h (0 Bft)
25.05.2015 07:00 11,0 C 93 % 1015,0 hPa 0,0 l/m 0,2 km/h (0 Bft) N 0,77 h 0,000 mm 0,6 UV-I 87 W/m 10,0 C 11,0 C 0,6 km/h (0 Bft)
25.05.2015 08:00 13,1 C 85 % 1014,9 hPa 0,0 l/m 1,0 km/h (0 Bft) N 1,00 h 0,051 mm 1,2 UV-I 239 W/m 10,6 C 13,1 C 2,7 km/h (1 Bft)
25.05.2015 09:00 14,4 C 77 % 1014,6 hPa 0,0 l/m 2,0 km/h (1 Bft) SW 1,00 h 0,127 mm 1,4 UV-I 233 W/m 10,4 C 14,4 C 5,1 km/h (1 Bft)
25.05.2015 10:00 15,0 C 74 % 1014,2 hPa 0,0 l/m 1,8 km/h (1 Bft) W-SW 1,00 h 0,127 mm 2,4 UV-I 355 W/m 10,4 C 15,0 C 4,7 km/h (1 Bft)
25.05.2015 11:00 16,6 C 67 % 1013,8 hPa 0,0 l/m 4,9 km/h (1 Bft) W 1,00 h 0,203 mm 3,6 UV-I 472 W/m 10,4 C 16,3 C 9,4 km/h (2 Bft)
25.05.2015 12:00 17,7 C 62 % 1013,0 hPa 0,0 l/m 3,0 km/h (1 Bft) SW 1,00 h 0,279 mm 4,1 UV-I 509 W/m 10,4 C 17,6 C 6,5 km/h (2 Bft)
25.05.2015 13:00 18,0 C 59 % 1012,2 hPa 0,0 l/m 2,0 km/h (1 Bft) N 1,00 h 0,305 mm 3,0 UV-I 381 W/m 10,0 C 18,0 C 4,7 km/h (1 Bft)
25.05.2015 14:00 15,4 C 77 % 1011,9 hPa 1,4 l/m 9,3 km/h (2 Bft) N 0,90 h 0,229 mm 0,9 UV-I 104 W/m 11,2 C 13,7 C 15,9 km/h (3 Bft)
25.05.2015 15:00 14,0 C 90 % 1011,8 hPa 0,0 l/m 3,2 km/h (1 Bft) N-NO 1,00 h 0,076 mm 1,1 UV-I 151 W/m 12,3 C 13,9 C 7,8 km/h (2 Bft)
25.05.2015 16:00 13,8 C 90 % 1011,3 hPa 0,6 l/m 3,2 km/h (1 Bft) N 0,85 h 0,076 mm 1,1 UV-I 154 W/m 12,2 C 13,7 C 7,5 km/h (2 Bft)
25.05.2015 17:00 14,5 C 87 % 1011,1 hPa 0,0 l/m 0,6 km/h (0 Bft) N 0,98 h 0,076 mm 0,9 UV-I 129 W/m 12,4 C 14,4 C 1,6 km/h (1 Bft)
25.05.2015 18:00 12,5 C 90 % 1011,9 hPa 3,2 l/m 4,4 km/h (1 Bft) N 0,00 h 0,076 mm 0,0 UV-I 13 W/m 10,8 C 11,8 C 8,9 km/h (2 Bft)
25.05.2015 19:00 11,3 C 94 % 1011,8 hPa 0,8 l/m 0,0 km/h (0 Bft) N 0,00 h 0,025 mm 0,0 UV-I 21 W/m 10,3 C 11,3 C 0,0 km/h (0 Bft)
25.05.2015 20:00 11,1 C 95 % 1011,6 hPa 0,0 l/m 0,0 km/h (0 Bft) N 0,00 h 0,000 mm 0,0 UV-I 8 W/m 10,3 C 11,1 C 0,0 km/h (0 Bft)
25.05.2015 21:00 11,1 C 96 % 1011,9 hPa 0,0 l/m 0,0 km/h (0 Bft) N 0,00 h 0,000 mm 0,0 UV-I 0 W/m 10,4 C 11,1 C 0,0 km/h (0 Bft)
25.05.2015 22:00 10,9 C 96 % 1012,0 hPa 0,0 l/m 0,0 km/h (0 Bft) N 0,00 h 0,000 mm 0,0 UV-I 0 W/m 10,3 C 10,9 C 0,0 km/h (0 Bft)
25.05.2015 23:00 10,4 C 96 % 1011,9 hPa 0,0 l/m 0,0 km/h (0 Bft) N 0,00 h 0,000 mm 0,0 UV-I 0 W/m 9,8 C 10,4 C 0,2 km/h (0 Bft)
26.05.2015 00:00 10,3 C 97 % 1011,8 hPa 0,0 l/m 0,1 km/h (0 Bft) N 0,00 h 0,000 mm 0,0 UV-I 0 W/m 9,7 C 10,3 C 0,5 km/h (0 Bft)
26.05.2015 01:00 10,1 C 96 % 1011,5 hPa 0,0 l/m 0,0 km/h (0 Bft) N 0,00 h 0,000 mm 0,0 UV-I 0 W/m 9,5 C 10,1 C 0,1 km/h (0 Bft)
26.05.2015 02:00 9,9 C 96 % 1011,6 hPa 0,2 l/m 0,4 km/h (0 Bft) N 0,00 h 0,000 mm 0,0 UV-I 0 W/m 9,3 C 9,9 C 2,2 km/h (1 Bft)
26.05.2015 03:00 9,9 C 96 % 1011,6 hPa 0,0 l/m 2,6 km/h (1 Bft) N 0,00 h 0,000 mm 0,0 UV-I 0 W/m 9,3 C 9,7 C 7,2 km/h (2 Bft)
26.05.2015 04:00 9,3 C 95 % 1012,0 hPa 0,0 l/m 9,7 km/h (2 Bft) N 0,00 h 0,000 mm 0,0 UV-I 0 W/m 8,5 C 6,9 C 17,7 km/h (3 Bft)
26.05.2015 05:00 8,5 C 95 % 1012,8 hPa 0,0 l/m 6,1 km/h (2 Bft) N-NW 0,00 h 0,000 mm 0,0 UV-I 0 W/m 7,7 C 7,5 C 12,8 km/h (3 Bft)
26.05.2015 06:00 8,0 C 94 % 1013,3 hPa 0,4 l/m 1,6 km/h (1 Bft) N 0,00 h 0,000 mm 0,0 UV-I 20 W/m 7,1 C 7,9 C 4,5 km/h (1 Bft)
26.05.2015 07:00 8,6 C 95 % 1013,5 hPa 0,2 l/m 0,5 km/h (0 Bft) N 0,95 h 0,000 mm 0,5 UV-I 106 W/m 7,8 C 8,6 C 1,8 km/h (1 Bft)
26.05.2015 08:00 9,6 C 91 % 1013,8 hPa 0,0 l/m 2,5 km/h (1 Bft) N 1,00 h 0,051 mm 1,2 UV-I 238 W/m 8,1 C 9,3 C 6,5 km/h (2 Bft)
26.05.2015 09:00 10,9 C 79 % 1014,3 hPa 0,0 l/m 6,1 km/h (2 Bft) N 1,00 h 0,102 mm 2,4 UV-I 500 W/m 7,5 C 10,1 C 11,9 km/h (2 Bft)
26.05.2015 10:00 12,7 C 69 % 1014,5 hPa 0,0 l/m 10,6 km/h (2 Bft) N 1,00 h 0,254 mm 3,6 UV-I 792 W/m 7,1 C 10,3 C 17,8 km/h (3 Bft)
26.05.2015 11:00 13,9 C 61 % 1014,9 hPa 0,0 l/m 10,9 km/h (2 Bft) N 1,00 h 0,381 mm 4,7 UV-I 778 W/m 6,5 C 11,5 C 18,8 km/h (3 Bft)
26.05.2015 12:00 13,9 C 58 % 1015,3 hPa 0,0 l/m 9,0 km/h (2 Bft) N 1,00 h 0,432 mm 3,7 UV-I 542 W/m 5,8 C 12,3 C 16,8 km/h (3 Bft)
26.05.2015 13:00 13,6 C 57 % 1015,6 hPa 0,0 l/m 8,1 km/h (2 Bft) N 1,00 h 0,305 mm 3,1 UV-I 417 W/m 5,3 C 12,2 C 14,9 km/h (3 Bft)
26.05.2015 14:00 13,0 C 59 % 1016,0 hPa 0,0 l/m 8,1 km/h (2 Bft) N 1,00 h 0,254 mm 1,7 UV-I 211 W/m 5,1 C 11,6 C 14,8 km/h (3 Bft)
26.05.2015 15:00 11,8 C 64 % 1016,6 hPa 0,0 l/m 4,3 km/h (1 Bft) NW 1,00 h 0,152 mm 0,8 UV-I 90 W/m 5,2 C 11,6 C 10,3 km/h (2 Bft)
26.05.2015 16:00 12,1 C 65 % 1016,7 hPa 0,0 l/m 2,5 km/h (1 Bft) N 1,00 h 0,076 mm 1,3 UV-I 201 W/m 5,7 C 12,0 C 5,8 km/h (2 Bft)
26.05.2015 17:00 12,0 C 64 % 1016,8 hPa 0,0 l/m 3,9 km/h (1 Bft) NW 0,35 h 0,102 mm 1,0 UV-I 63 W/m 5,5 C 11,7 C 9,0 km/h (2 Bft)
26.05.2015 18:00 10,9 C 69 % 1017,3 hPa 0,0 l/m 6,1 km/h (2 Bft) N-NW 0,55 h 0,051 mm 0,5 UV-I 61 W/m 5,5 C 9,9 C 12,1 km/h (2 Bft)
26.05.2015 19:00 10,7 C 67 % 1017,9 hPa 0,0 l/m 3,4 km/h (1 Bft) N 0,67 h 0,051 mm 0,5 UV-I 68 W/m 4,9 C 10,3 C 7,6 km/h (2 Bft)
26.05.2015 20:00 10,1 C 69 % 1018,5 hPa 0,0 l/m 4,2 km/h (1 Bft) N-NW 0,00 h 0,051 mm 0,0 UV-I 21 W/m 4,8 C 9,8 C 9,5 km/h (2 Bft)
26.05.2015 21:00 9,4 C 71 % 1019,1 hPa 0,0 l/m 0,1 km/h (0 Bft) N 0,00 h 0,025 mm 0,0 UV-I 0 W/m 4,3 C 9,4 C 0,3 km/h (0 Bft)
26.05.2015 22:00 8,9 C 75 % 1019,5 hPa 0,0 l/m 0,0 km/h (0 Bft) N 0,00 h 0,000 mm 0,0 UV-I 0 W/m 4,7 C 8,9 C 0,1 km/h (0 Bft)
26.05.2015 23:00 8,6 C 80 % 1019,8 hPa 0,0 l/m 0,0 km/h (0 Bft) N 0,00 h 0,025 mm 0,0 UV-I 0 W/m 5,3 C 8,6 C 0,0 km/h (0 Bft)
27.05.2015 00:00 8,2 C 81 % 1019,9 hPa 0,0 l/m 0,3 km/h (0 Bft) N 0,00 h 0,025 mm 0,0 UV-I 0 W/m 5,1 C 8,2 C 1,6 km/h (1 Bft)
27.05.2015 01:00 7,9 C 81 % 1020,0 hPa 0,0 l/m 0,0 km/h (0 Bft) N 0,00 h 0,025 mm 0,0 UV-I 0 W/m 4,9 C 7,9 C 0,1 km/h (0 Bft)
27.05.2015 02:00 7,8 C 82 % 1020,2 hPa 0,0 l/m 0,7 km/h (0 Bft) N 0,00 h 0,000 mm 0,0 UV-I 0 W/m 4,9 C 7,8 C 2,3 km/h (1 Bft)
27.05.2015 03:00 7,7 C 83 % 1020,1 hPa 0,0 l/m 0,7 km/h (0 Bft) N 0,00 h 0,000 mm 0,0 UV-I 0 W/m 5,0 C 7,7 C 2,0 km/h (1 Bft)
27.05.2015 04:00 7,4 C 84 % 1020,3 hPa 0,0 l/m 1,8 km/h (1 Bft) N 0,00 h 0,000 mm 0,0 UV-I 0 W/m 4,8 C 7,4 C 4,8 km/h (1 Bft)
27.05.2015 05:00 7,3 C 85 % 1020,8 hPa 0,0 l/m 0,5 km/h (0 Bft) N 0,00 h 0,000 mm 0,0 UV-I 11 W/m 5,0 C 7,3 C 1,7 km/h (1 Bft)
27.05.2015 06:00 7,6 C 85 % 1021,4 hPa 0,0 l/m 1,5 km/h (1 Bft) N 0,25 h 0,000 mm 0,5 UV-I 47 W/m 5,2 C 7,6 C 4,0 km/h (1 Bft)
27.05.2015 07:00 8,1 C 81 % 1021,5 hPa 0,0 l/m 4,2 km/h (1 Bft) N-NW 1,00 h 0,025 mm 0,6 UV-I 123 W/m 5,0 C 7,5 C 9,6 km/h (2 Bft)
27.05.2015 08:00 8,8 C 77 % 1021,7 hPa 0,0 l/m 5,2 km/h (1 Bft) N-NW 1,00 h 0,076 mm 1,1 UV-I 189 W/m 5,0 C 8,1 C 10,6 km/h (2 Bft)
27.05.2015 09:00 8,9 C 74 % 1021,9 hPa 0,0 l/m 6,4 km/h (2 Bft) N-NW 1,00 h 0,102 mm 0,9 UV-I 140 W/m 4,5 C 7,7 C 11,7 km/h (2 Bft)
27.05.2015 10:00 8,9 C 76 % 1022,1 hPa 0,0 l/m 3,4 km/h (1 Bft) NW 1,00 h 0,076 mm 1,9 UV-I 267 W/m 5,0 C 8,6 C 7,9 km/h (2 Bft)
27.05.2015 11:00 10,2 C 71 % 1022,0 hPa 0,0 l/m 5,0 km/h (1 Bft) NW 1,00 h 0,127 mm 2,1 UV-I 269 W/m 5,1 C 9,6 C 10,2 km/h (2 Bft)
27.05.2015 12:00 10,2 C 67 % 1022,0 hPa 0,0 l/m 6,0 km/h (2 Bft) NW 1,00 h 0,152 mm 2,3 UV-I 299 W/m 4,3 C 9,2 C 11,8 km/h (2 Bft)
27.05.2015 13:00 11,0 C 62 % 1021,9 hPa 0,0 l/m 9,1 km/h (2 Bft) NW 1,00 h 0,152 mm 2,7 UV-I 332 W/m 3,9 C 9,0 C 15,3 km/h (3 Bft)
27.05.2015 14:00 11,2 C 59 % 1022,0 hPa 0,0 l/m 8,3 km/h (2 Bft) N-NW 1,00 h 0,203 mm 2,5 UV-I 318 W/m 3,4 C 9,7 C 15,0 km/h (3 Bft)
27.05.2015 15:00 11,1 C 58 % 1021,9 hPa 0,0 l/m 4,7 km/h (1 Bft) NW 1,00 h 0,203 mm 1,7 UV-I 237 W/m 3,2 C 10,6 C 10,0 km/h (2 Bft)
27.05.2015 16:00 10,9 C 60 % 1022,0 hPa 0,0 l/m 3,0 km/h (1 Bft) W 1,00 h 0,127 mm 1,2 UV-I 166 W/m 3,5 C 10,8 C 6,5 km/h (2 Bft)
27.05.2015 17:00 11,0 C 61 % 1021,9 hPa 0,0 l/m 2,7 km/h (1 Bft) NW 1,00 h 0,102 mm 0,8 UV-I 121 W/m 3,7 C 10,8 C 6,1 km/h (2 Bft)
27.05.2015 18:00 10,6 C 63 % 1021,8 hPa 0,0 l/m 1,5 km/h (1 Bft) NW 0,37 h 0,076 mm 0,5 UV-I 49 W/m 3,9 C 10,5 C 4,6 km/h (1 Bft)
27.05.2015 19:00 10,0 C 68 % 1021,9 hPa 0,0 l/m 0,4 km/h (0 Bft) N 0,22 h 0,025 mm 0,0 UV-I 30 W/m 4,3 C 10,0 C 2,5 km/h (1 Bft)
27.05.2015 20:00 9,6 C 72 % 1021,6 hPa 0,0 l/m 0,0 km/h (0 Bft) N 0,00 h 0,025 mm 0,0 UV-I 9 W/m 4,7 C 9,6 C 0,1 km/h (0 Bft)
27.05.2015 21:00 9,1 C 76 % 1021,6 hPa 0,0 l/m 0,0 km/h (0 Bft) N 0,00 h 0,000 mm 0,0 UV-I 0 W/m 5,0 C 9,1 C 0,1 km/h (0 Bft)
27.05.2015 22:00 8,8 C 77 % 1021,4 hPa 0,0 l/m 0,0 km/h (0 Bft) N 0,00 h 0,000 mm 0,0 UV-I 0 W/m 5,0 C 8,8 C 0,0 km/h (0 Bft)
27.05.2015 23:00 8,5 C 79 % 1021,4 hPa 0,0 l/m 0,0 km/h (0 Bft) N 0,00 h 0,025 mm 0,0 UV-I 0 W/m 5,1 C 8,5 C 0,0 km/h (0 Bft)
28.05.2015 00:00 8,2 C 81 % 1021,1 hPa 0,0 l/m 0,0 km/h (0 Bft) N 0,00 h 0,025 mm 0,0 UV-I 0 W/m 5,1 C 8,2 C 0,1 km/h (0 Bft)
28.05.2015 01:00 7,9 C 82 % 1020,7 hPa 0,0 l/m 0,0 km/h (0 Bft) N 0,00 h 0,000 mm 0,0 UV-I 0 W/m 5,0 C 7,9 C 0,1 km/h (0 Bft)
28.05.2015 02:00 7,5 C 84 % 1020,4 hPa 0,0 l/m 0,0 km/h (0 Bft) N 0,00 h 0,000 mm 0,0 UV-I 0 W/m 5,0 C 7,5 C 0,1 km/h (0 Bft)
28.05.2015 03:00 6,9 C 85 % 1019,9 hPa 0,0 l/m 0,0 km/h (0 Bft) N 0,00 h 0,000 mm 0,0 UV-I 0 W/m 4,5 C 6,9 C 0,0 km/h (0 Bft)
28.05.2015 04:00 5,1 C 91 % 1019,7 hPa 0,0 l/m 0,0 km/h (0 Bft) N 0,00 h 0,000 mm 0,0 UV-I 0 W/m 3,8 C 5,1 C 0,0 km/h (0 Bft)
28.05.2015 05:00 4,9 C 93 % 1019,7 hPa 0,0 l/m 0,0 km/h (0 Bft) N 0,00 h 0,000 mm 0,0 UV-I 16 W/m 3,9 C 4,9 C 0,0 km/h (0 Bft)
28.05.2015 06:00 5,9 C 90 % 1019,8 hPa 0,0 l/m 0,0 km/h (0 Bft) N 0,60 h 0,000 mm 0,0 UV-I 59 W/m 4,5 C 5,9 C 0,0 km/h (0 Bft)
28.05.2015 07:00 7,1 C 86 % 1019,6 hPa 0,0 l/m 0,1 km/h (0 Bft) N 1,00 h 0,025 mm 0,7 UV-I 136 W/m 4,8 C 7,1 C 0,4 km/h (0 Bft)
28.05.2015 08:00 9,2 C 75 % 1019,6 hPa 0,0 l/m 1,8 km/h (1 Bft) N 1,00 h 0,051 mm 1,4 UV-I 300 W/m 4,9 C 9,1 C 4,3 km/h (1 Bft)
28.05.2015 09:00 11,4 C 61 % 1019,3 hPa 0,0 l/m 6,4 km/h (2 Bft) S 1,00 h 0,152 mm 2,7 UV-I 560 W/m 4,0 C 10,7 C 12,6 km/h (3 Bft)
28.05.2015 10:00 12,3 C 59 % 1018,8 hPa 0,0 l/m 6,1 km/h (2 Bft) S 1,00 h 0,305 mm 3,3 UV-I 566 W/m 4,6 C 11,7 C 11,9 km/h (2 Bft)
28.05.2015 11:00 13,4 C 59 % 1018,4 hPa 0,0 l/m 4,4 km/h (1 Bft) S 1,00 h 0,305 mm 4,7 UV-I 705 W/m 5,7 C 13,2 C 9,3 km/h (2 Bft)
28.05.2015 12:00 14,2 C 57 % 1017,6 hPa 0,0 l/m 4,1 km/h (1 Bft) S 1,00 h 0,381 mm 4,7 UV-I 584 W/m 5,7 C 14,0 C 9,7 km/h (2 Bft)
28.05.2015 13:00 14,9 C 56 % 1017,0 hPa 0,0 l/m 3,9 km/h (1 Bft) S 1,00 h 0,330 mm 5,0 UV-I 659 W/m 6,2 C 14,8 C 8,9 km/h (2 Bft)
28.05.2015 14:00 16,8 C 52 % 1016,4 hPa 0,0 l/m 3,8 km/h (1 Bft) S 1,00 h 0,356 mm 5,5 UV-I 881 W/m 6,8 C 16,6 C 9,5 km/h (2 Bft)
28.05.2015 15:00 17,8 C 48 % 1015,8 hPa 0,0 l/m 4,3 km/h (1 Bft) W-SW 1,00 h 0,457 mm 4,4 UV-I 753 W/m 6,7 C 17,5 C 9,5 km/h (2 Bft)
28.05.2015 16:00 17,9 C 45 % 1015,2 hPa 0,0 l/m 5,1 km/h (1 Bft) S 1,00 h 0,432 mm 2,9 UV-I 538 W/m 5,8 C 17,6 C 11,4 km/h (2 Bft)
28.05.2015 17:00 17,7 C 44 % 1014,6 hPa 0,0 l/m 5,2 km/h (1 Bft) W-SW 1,00 h 0,330 mm 1,5 UV-I 316 W/m 5,3 C 17,2 C 11,7 km/h (2 Bft)
28.05.2015 18:00 17,6 C 46 % 1014,1 hPa 0,0 l/m 3,8 km/h (1 Bft) W-SW 1,00 h 0,229 mm 0,9 UV-I 139 W/m 5,8 C 17,5 C 9,5 km/h (2 Bft)
28.05.2015 19:00 16,9 C 49 % 1014,0 hPa 0,0 l/m 1,0 km/h (0 Bft) N 0,93 h 0,102 mm 0,5 UV-I 77 W/m 6,1 C 16,9 C 2,9 km/h (1 Bft)
28.05.2015 20:00 16,3 C 52 % 1013,7 hPa 0,0 l/m 0,1 km/h (0 Bft) N 0,00 h 0,051 mm 0,0 UV-I 23 W/m 6,4 C 16,3 C 0,6 km/h (0 Bft)
28.05.2015 21:00 15,1 C 56 % 1014,0 hPa 0,0 l/m 0,0 km/h (0 Bft) N 0,00 h 0,025 mm 0,0 UV-I 0 W/m 6,5 C 15,1 C 0,2 km/h (0 Bft)
28.05.2015 22:00 13,3 C 66 % 1013,9 hPa 0,0 l/m 0,0 km/h (0 Bft) N 0,00 h 0,000 mm 0,0 UV-I 0 W/m 7,0 C 13,3 C 0,0 km/h (0 Bft)
28.05.2015 23:00 11,6 C 75 % 1013,7 hPa 0,0 l/m 0,0 km/h (0 Bft) N 0,00 h 0,025 mm 0,0 UV-I 0 W/m 7,3 C 11,6 C 0,1 km/h (0 Bft)
29.05.2015 00:00 11,6 C 76 % 1013,7 hPa 0,0 l/m 0,5 km/h (0 Bft) N 0,00 h 0,025 mm 0,0 UV-I 0 W/m 7,5 C 11,6 C 1,4 km/h (1 Bft)
29.05.2015 01:00 12,2 C 76 % 1013,7 hPa 0,0 l/m 1,8 km/h (1 Bft) N 0,00 h 0,025 mm 0,0 UV-I 0 W/m 8,1 C 12,1 C 4,8 km/h (1 Bft)
29.05.2015 02:00 12,5 C 77 % 1013,8 hPa 0,0 l/m 0,0 km/h (0 Bft) N 0,00 h 0,025 mm 0,0 UV-I 0 W/m 8,6 C 12,5 C 0,0 km/h (0 Bft)
29.05.2015 03:00 11,0 C 84 % 1013,4 hPa 0,0 l/m 0,0 km/h (0 Bft) N 0,00 h 0,025 mm 0,0 UV-I 0 W/m 8,5 C 11,0 C 0,0 km/h (0 Bft)
29.05.2015 04:00 9,2 C 90 % 1013,3 hPa 0,0 l/m 0,0 km/h (0 Bft) N 0,00 h 0,000 mm 0,0 UV-I 0 W/m 7,7 C 9,2 C 0,0 km/h (0 Bft)
29.05.2015 05:00 8,6 C 92 % 1013,5 hPa 0,0 l/m 0,0 km/h (0 Bft) N 0,00 h 0,000 mm 0,0 UV-I 11 W/m 7,4 C 8,6 C 0,0 km/h (0 Bft)
29.05.2015 06:00 8,5 C 92 % 1013,8 hPa 0,0 l/m 0,0 km/h (0 Bft) N 0,22 h 0,000 mm 0,0 UV-I 41 W/m 7,3 C 8,5 C 0,1 km/h (0 Bft)
29.05.2015 07:00 10,5 C 87 % 1013,7 hPa 0,0 l/m 0,0 km/h (0 Bft) N 1,00 h 0,025 mm 0,8 UV-I 207 W/m 8,4 C 10,5 C 0,1 km/h (0 Bft)
29.05.2015 08:00 13,0 C 80 % 1013,6 hPa 0,0 l/m 0,1 km/h (0 Bft) N 1,00 h 0,102 mm 1,4 UV-I 302 W/m 9,6 C 13,0 C 0,5 km/h (0 Bft)
29.05.2015 09:00 15,7 C 64 % 1013,3 hPa 0,0 l/m 3,8 km/h (1 Bft) S 1,00 h 0,152 mm 2,8 UV-I 595 W/m 8,9 C 15,6 C 8,0 km/h (2 Bft)
29.05.2015 10:00 16,3 C 63 % 1013,0 hPa 0,0 l/m 6,2 km/h (2 Bft) S 1,00 h 0,330 mm 3,6 UV-I 625 W/m 9,3 C 15,9 C 11,5 km/h (2 Bft)
29.05.2015 11:00 17,1 C 60 % 1012,6 hPa 0,0 l/m 7,5 km/h (2 Bft) S 1,00 h 0,356 mm 4,6 UV-I 667 W/m 9,4 C 16,2 C 13,7 km/h (3 Bft)
29.05.2015 12:00 17,3 C 62 % 1012,2 hPa 0,0 l/m 6,5 km/h (2 Bft) S 1,00 h 0,406 mm 3,5 UV-I 486 W/m 9,8 C 16,7 C 12,7 km/h (3 Bft)
29.05.2015 13:00 17,5 C 58 % 1011,5 hPa 0,0 l/m 6,7 km/h (2 Bft) SW 1,00 h 0,305 mm 2,9 UV-I 342 W/m 9,2 C 17,0 C 15,1 km/h (3 Bft)
29.05.2015 14:00 17,8 C 59 % 1010,9 hPa 0,0 l/m 4,5 km/h (1 Bft) W-SW 1,00 h 0,229 mm 3,2 UV-I 405 W/m 9,7 C 17,6 C 10,6 km/h (2 Bft)
29.05.2015 15:00 17,0 C 64 % 1010,5 hPa 0,0 l/m 3,3 km/h (1 Bft) S 0,78 h 0,254 mm 1,1 UV-I 110 W/m 10,1 C 17,0 C 7,7 km/h (2 Bft)
29.05.2015 16:00 16,7 C 72 % 1010,3 hPa 0,0 l/m 2,0 km/h (1 Bft) S 1,00 h 0,076 mm 1,7 UV-I 223 W/m 11,5 C 16,6 C 4,9 km/h (1 Bft)
29.05.2015 17:00 16,4 C 71 % 1009,8 hPa 0,0 l/m 1,3 km/h (1 Bft) N 1,00 h 0,127 mm 1,2 UV-I 201 W/m 11,2 C 16,4 C 3,6 km/h (1 Bft)
29.05.2015 18:00 16,5 C 71 % 1009,4 hPa 0,0 l/m 4,2 km/h (1 Bft) S-SO 1,00 h 0,127 mm 0,8 UV-I 149 W/m 11,3 C 16,4 C 7,6 km/h (2 Bft)
29.05.2015 19:00 16,5 C 73 % 1008,9 hPa 0,0 l/m 1,8 km/h (1 Bft) N 0,48 h 0,102 mm 0,5 UV-I 61 W/m 11,6 C 16,5 C 3,6 km/h (1 Bft)
29.05.2015 20:00 14,3 C 82 % 1009,4 hPa 2,0 l/m 3,2 km/h (1 Bft) N 0,00 h 0,051 mm 0,0 UV-I 12 W/m 11,3 C 13,9 C 6,2 km/h (2 Bft)
29.05.2015 21:00 11,8 C 92 % 1010,0 hPa 0,2 l/m 0,1 km/h (0 Bft) N 0,00 h 0,000 mm 0,0 UV-I 0 W/m 10,6 C 11,8 C 0,5 km/h (0 Bft)
29.05.2015 22:00 11,5 C 95 % 1010,1 hPa 0,0 l/m 0,0 km/h (0 Bft) N 0,00 h 0,000 mm 0,0 UV-I 0 W/m 10,6 C 11,5 C 0,0 km/h (0 Bft)
29.05.2015 23:00 11,5 C 94 % 1010,2 hPa 0,0 l/m 0,1 km/h (0 Bft) N 0,00 h 0,000 mm 0,0 UV-I 0 W/m 10,6 C 11,5 C 0,5 km/h (0 Bft)
30.05.2015 00:00 11,2 C 94 % 1010,1 hPa 0,0 l/m 0,7 km/h (0 Bft) N 0,00 h 0,000 mm 0,0 UV-I 0 W/m 10,3 C 11,2 C 2,0 km/h (1 Bft)
30.05.2015 01:00 10,8 C 94 % 1010,2 hPa 0,0 l/m 0,7 km/h (0 Bft) N 0,00 h 0,000 mm 0,0 UV-I 0 W/m 9,9 C 10,8 C 3,1 km/h (1 Bft)
30.05.2015 02:00 10,9 C 94 % 1010,2 hPa 0,0 l/m 1,4 km/h (1 Bft) SW 0,00 h 0,000 mm 0,0 UV-I 0 W/m 10,0 C 10,9 C 4,9 km/h (1 Bft)
30.05.2015 03:00 10,9 C 95 % 1010,3 hPa 0,0 l/m 1,9 km/h (1 Bft) S-SW 0,00 h 0,000 mm 0,0 UV-I 0 W/m 10,1 C 10,9 C 5,6 km/h (2 Bft)
30.05.2015 04:00 10,7 C 95 % 1010,6 hPa 0,0 l/m 3,1 km/h (1 Bft) SW 0,00 h 0,000 mm 0,0 UV-I 0 W/m 9,9 C 10,6 C 8,1 km/h (2 Bft)
30.05.2015 05:00 10,4 C 95 % 1010,6 hPa 0,0 l/m 1,6 km/h (1 Bft) S-SW 0,00 h 0,000 mm 0,0 UV-I 12 W/m 9,6 C 10,4 C 6,1 km/h (2 Bft)
30.05.2015 06:00 10,8 C 93 % 1010,8 hPa 0,2 l/m 5,5 km/h (2 Bft) S-SW 0,00 h 0,000 mm 0,0 UV-I 18 W/m 9,7 C 10,4 C 12,2 km/h (2 Bft)
30.05.2015 07:00 10,8 C 93 % 1011,0 hPa 0,4 l/m 5,4 km/h (1 Bft) SW 0,57 h 0,025 mm 0,0 UV-I 56 W/m 9,7 C 10,4 C 11,9 km/h (2 Bft)
30.05.2015 08:00 11,0 C 94 % 1011,4 hPa 0,8 l/m 4,4 km/h (1 Bft) SW 1,00 h 0,025 mm 0,7 UV-I 104 W/m 10,0 C 10,6 C 10,6 km/h (2 Bft)
30.05.2015 09:00 10,6 C 93 % 1012,2 hPa 0,2 l/m 5,8 km/h (2 Bft) W-SW 0,93 h 0,051 mm 0,7 UV-I 89 W/m 9,4 C 9,8 C 12,7 km/h (3 Bft)
30.05.2015 10:00 10,3 C 92 % 1013,0 hPa 0,0 l/m 3,3 km/h (1 Bft) W-SW 1,00 h 0,051 mm 1,2 UV-I 170 W/m 9,0 C 10,2 C 8,8 km/h (2 Bft)
30.05.2015 11:00 11,3 C 89 % 1013,3 hPa 0,0 l/m 5,7 km/h (2 Bft) W-SW 1,00 h 0,076 mm 2,2 UV-I 306 W/m 9,4 C 10,7 C 11,5 km/h (2 Bft)
30.05.2015 12:00 12,3 C 84 % 1013,4 hPa 0,0 l/m 5,3 km/h (1 Bft) W-SW 1,00 h 0,152 mm 2,6 UV-I 327 W/m 9,8 C 11,6 C 11,3 km/h (2 Bft)
30.05.2015 13:00 11,0 C 89 % 1013,8 hPa 1,4 l/m 3,8 km/h (1 Bft) W 0,95 h 0,178 mm 1,1 UV-I 119 W/m 9,2 C 10,7 C 9,3 km/h (2 Bft)
30.05.2015 14:00 11,7 C 89 % 1014,0 hPa 0,8 l/m 3,0 km/h (1 Bft) W-SW 1,00 h 0,051 mm 2,2 UV-I 324 W/m 9,9 C 11,6 C 7,6 km/h (2 Bft)
30.05.2015 15:00 10,9 C 91 % 1014,4 hPa 0,6 l/m 5,7 km/h (2 Bft) W 1,00 h 0,152 mm 1,3 UV-I 167 W/m 9,4 C 10,2 C 12,1 km/h (2 Bft)
30.05.2015 16:00 12,4 C 87 % 1014,5 hPa 0,0 l/m 4,4 km/h (1 Bft) W 1,00 h 0,102 mm 2,0 UV-I 381 W/m 10,3 C 12,1 C 9,6 km/h (2 Bft)
30.05.2015 17:00 13,5 C 75 % 1014,5 hPa 0,0 l/m 6,4 km/h (2 Bft) W-SW 1,00 h 0,203 mm 1,4 UV-I 268 W/m 9,1 C 12,9 C 13,9 km/h (3 Bft)
30.05.2015 18:00 13,4 C 73 % 1015,0 hPa 0,0 l/m 2,9 km/h (1 Bft) W-SW 1,00 h 0,152 mm 0,6 UV-I 119 W/m 8,6 C 13,3 C 7,3 km/h (2 Bft)
30.05.2015 19:00 12,9 C 74 % 1015,5 hPa 0,0 l/m 2,2 km/h (1 Bft) W-SW 0,87 h 0,076 mm 0,5 UV-I 80 W/m 8,4 C 12,9 C 5,4 km/h (1 Bft)
30.05.2015 20:00 12,2 C 69 % 1016,0 hPa 0,0 l/m 1,0 km/h (0 Bft) N 0,25 h 0,051 mm 0,0 UV-I 31 W/m 6,6 C 12,2 C 2,8 km/h (1 Bft)
30.05.2015 21:00 10,9 C 75 % 1016,9 hPa 0,0 l/m 0,0 km/h (0 Bft) N 0,00 h 0,025 mm 0,0 UV-I 6 W/m 6,6 C 10,9 C 0,0 km/h (0 Bft)
30.05.2015 22:00 9,8 C 78 % 1017,4 hPa 0,0 l/m 0,4 km/h (0 Bft) N 0,00 h 0,000 mm 0,0 UV-I 0 W/m 6,2 C 9,8 C 1,8 km/h (1 Bft)
30.05.2015 23:00 8,5 C 82 % 1017,9 hPa 0,0 l/m 0,0 km/h (0 Bft) N 0,00 h 0,025 mm 0,0 UV-I 0 W/m 5,6 C 8,5 C 0,0 km/h (0 Bft)
31.05.2015 00:00 6,8 C 91 % 1018,4 hPa 0,0 l/m 0,0 km/h (0 Bft) N 0,00 h 0,000 mm 0,0 UV-I 0 W/m 5,4 C 6,8 C 0,0 km/h (0 Bft)
31.05.2015 01:00 6,0 C 93 % 1018,4 hPa 0,0 l/m 0,0 km/h (0 Bft) N 0,00 h 0,000 mm 0,0 UV-I 0 W/m 5,0 C 6,0 C 0,0 km/h (0 Bft)
31.05.2015 02:00 5,3 C 94 % 1018,4 hPa 0,0 l/m 0,0 km/h (0 Bft) N 0,00 h 0,000 mm 0,0 UV-I 0 W/m 4,4 C 5,3 C 0,0 km/h (0 Bft)
31.05.2015 03:00 4,8 C 95 % 1018,2 hPa 0,0 l/m 0,0 km/h (0 Bft) N 0,00 h 0,000 mm 0,0 UV-I 0 W/m 4,1 C 4,8 C 0,0 km/h (0 Bft)
31.05.2015 04:00 4,3 C 95 % 1018,3 hPa 0,0 l/m 0,0 km/h (0 Bft) N 0,00 h 0,000 mm 0,0 UV-I 0 W/m 3,5 C 4,3 C 0,0 km/h (0 Bft)
31.05.2015 05:00 4,0 C 96 % 1018,3 hPa 0,0 l/m 0,0 km/h (0 Bft) N 0,00 h 0,000 mm 0,0 UV-I 18 W/m 3,4 C 4,0 C 0,0 km/h (0 Bft)
31.05.2015 06:00 4,9 C 96 % 1018,2 hPa 0,0 l/m 0,0 km/h (0 Bft) N 0,73 h 0,000 mm 0,5 UV-I 52 W/m 4,2 C 4,9 C 0,0 km/h (0 Bft)
31.05.2015 07:00 7,0 C 93 % 1018,3 hPa 0,0 l/m 0,0 km/h (0 Bft) N 1,00 h 0,025 mm 0,7 UV-I 153 W/m 5,8 C 7,0 C 0,0 km/h (0 Bft)
31.05.2015 08:00 9,9 C 86 % 1018,4 hPa 0,0 l/m 0,5 km/h (0 Bft) N 1,00 h 0,076 mm 1,3 UV-I 300 W/m 7,6 C 9,9 C 0,9 km/h (0 Bft)
31.05.2015 09:00 12,5 C 78 % 1018,3 hPa 0,0 l/m 4,5 km/h (1 Bft) S 1,00 h 0,127 mm 2,4 UV-I 483 W/m 8,7 C 12,3 C 8,8 km/h (2 Bft)
31.05.2015 10:00 15,0 C 67 % 1017,9 hPa 0,0 l/m 6,2 km/h (2 Bft) S-SW 1,00 h 0,254 mm 3,7 UV-I 728 W/m 8,8 C 14,3 C 12,2 km/h (2 Bft)
31.05.2015 11:00 15,4 C 65 % 1017,6 hPa 0,0 l/m 6,7 km/h (2 Bft) SW 1,00 h 0,381 mm 3,5 UV-I 511 W/m 8,8 C 14,8 C 12,8 km/h (3 Bft)
31.05.2015 12:00 16,5 C 59 % 1017,4 hPa 0,0 l/m 6,4 km/h (2 Bft) W-SW 1,00 h 0,305 mm 3,9 UV-I 529 W/m 8,4 C 16,0 C 13,1 km/h (3 Bft)
31.05.2015 13:00 17,2 C 57 % 1017,0 hPa 0,0 l/m 7,3 km/h (2 Bft) W-SW 1,00 h 0,330 mm 3,6 UV-I 489 W/m 8,5 C 16,4 C 14,7 km/h (3 Bft)
31.05.2015 14:00 17,5 C 56 % 1016,6 hPa 0,0 l/m 5,0 km/h (1 Bft) S 1,00 h 0,305 mm 3,4 UV-I 457 W/m 8,7 C 17,2 C 10,9 km/h (2 Bft)
31.05.2015 15:00 18,2 C 55 % 1016,1 hPa 0,0 l/m 3,9 km/h (1 Bft) S 1,00 h 0,279 mm 3,1 UV-I 462 W/m 8,9 C 18,1 C 9,3 km/h (2 Bft)
31.05.2015 16:00 19,0 C 52 % 1015,5 hPa 0,0 l/m 5,5 km/h (2 Bft) S 1,00 h 0,279 mm 2,8 UV-I 504 W/m 8,9 C 18,7 C 11,4 km/h (2 Bft)
31.05.2015 17:00 18,5 C 54 % 1015,1 hPa 0,0 l/m 5,2 km/h (1 Bft) S 1,00 h 0,330 mm 1,5 UV-I 271 W/m 9,0 C 18,3 C 11,1 km/h (2 Bft)
31.05.2015 18:00 18,2 C 57 % 1014,7 hPa 0,0 l/m 3,5 km/h (1 Bft) S 1,00 h 0,178 mm 0,7 UV-I 124 W/m 9,5 C 18,1 C 8,7 km/h (2 Bft)
31.05.2015 19:00 18,1 C 56 % 1014,5 hPa 0,0 l/m 3,8 km/h (1 Bft) SW 0,73 h 0,102 mm 0,6 UV-I 65 W/m 9,3 C 18,0 C 9,4 km/h (2 Bft)
31.05.2015 20:00 17,2 C 59 % 1014,5 hPa 0,0 l/m 0,5 km/h (0 Bft) N 0,00 h 0,076 mm 0,0 UV-I 25 W/m 9,2 C 17,2 C 1,9 km/h (1 Bft)
31.05.2015 21:00 15,4 C 68 % 1014,5 hPa 0,0 l/m 0,0 km/h (0 Bft) N 0,00 h 0,026 mm 0,0 UV-I 5 W/m 9,4 C 15,4 C 0,0 km/h (0 Bft)
31.05.2015 22:00 13,0 C 78 % 1014,7 hPa 0,0 l/m 0,1 km/h (0 Bft) N 0,00 h 0,000 mm 0,0 UV-I 0 W/m 9,3 C 13,0 C 0,5 km/h (0 Bft)
31.05.2015 23:00 11,4 C 85 % 1014,6 hPa 0,0 l/m 0,1 km/h (0 Bft) N 0,00 h 0,025 mm 0,0 UV-I 0 W/m 9,0 C 11,4 C 0,2 km/h (0 Bft)
Min-Datum _ 31.05.15 28.05.15 29.05.15 - 25.05.15 - - - - - 27.05.15 26.05.15 25.05.15
_ Min-Zeit 05:35 17:10 19:50 - 00:00 - - - - - 14:24 04:47 00:00
Minimum _ 3,8 C 41 % 1008,6 hPa - 0,0 km/h (0 Bft) - - - - - 2,4 C 1,3 C 0,0 km/h (0 Bft)
Max-Datum _ 31.05.15 25.05.15 27.05.15 25.05.15 25.05.15 - 25.05.15 28.05.15 28.05.15 26.05.15 25.05.15 31.05.15 25.05.15
_ Max-Zeit 16:25 22:29 10:16 18:17 18:08 - 09:51 15:00 12:07 12:47 17:03 16:32 18:07
Maximum _ 19,3 C 97 % 1022,2 hPa 3,2 l/m 22,5 km/h
N (4 Bft)
- 0,08 h 0,457 mm 6,9 UV-I 1181 W/m 12,9 C 19,3 C 35,4 km/h
NW (5 Bft)
Durchschnitt _ 11,7 C 77 % 1015,6 hPa #13,4 l/m 2,6 km/h (1 Bft) N #85:54 h #16,324 mm 2,0 UV-I 249 W/m 7,6 C 11,5 C 5,6 km/h (2 Bft)